createdAt,value
2018-11-03T00:02:07.042Z,7.92
2018-11-03T00:04:42.666Z,6.10
2018-11-03T00:07:18.152Z,7.45
2018-11-03T00:09:53.397Z,7.10
2018-11-03T00:12:28.954Z,6.60
2018-11-03T00:15:04.578Z,6.75
2018-11-03T00:17:40.315Z,6.25
2018-11-03T00:20:15.924Z,7.05
2018-11-03T00:22:51.231Z,7.03
2018-11-03T00:25:26.693Z,7.45
2018-11-03T00:28:01.907Z,7.05
2018-11-03T00:30:38.116Z,8.30
2018-11-03T00:33:13.809Z,7.42
2018-11-03T00:35:49.407Z,7.90
2018-11-03T00:38:24.704Z,8.53
2018-11-03T00:41:00.226Z,8.50
2018-11-03T00:43:35.744Z,8.00
2018-11-03T00:46:11.156Z,7.40
2018-11-03T00:48:46.718Z,7.00
2018-11-03T00:53:57.043Z,8.13
2018-11-03T00:56:32.754Z,8.73
2018-11-03T00:59:08.222Z,8.58
2018-11-03T01:01:43.516Z,8.58
2018-11-03T01:04:19.034Z,7.80
2018-11-03T01:06:54.413Z,9.00
2018-11-03T01:09:29.844Z,8.95
2018-11-03T01:12:05.444Z,9.48
2018-11-03T01:14:40.997Z,8.73
2018-11-03T01:17:16.344Z,8.35
2018-11-03T01:19:51.883Z,8.75
2018-11-03T01:22:27.454Z,7.92
2018-11-03T01:25:03.301Z,8.13
2018-11-03T01:27:38.855Z,8.85
2018-11-03T01:30:15.672Z,8.70
2018-11-03T01:32:50.976Z,8.28
2018-11-03T01:35:26.210Z,8.18
2018-11-03T01:38:01.641Z,9.50
2018-11-03T01:40:36.913Z,9.25
2018-11-03T01:43:12.417Z,8.70
2018-11-03T01:45:47.971Z,9.75
2018-11-03T01:48:23.515Z,9.65
2018-11-03T01:50:59.142Z,10.68
2018-11-03T01:53:34.794Z,8.33
2018-11-03T01:56:10.604Z,10.20
2018-11-03T01:58:46.406Z,9.90
2018-11-03T02:01:21.832Z,11.73
2018-11-03T02:03:57.195Z,9.05
2018-11-03T02:06:32.541Z,9.45
2018-11-03T02:09:09.256Z,9.25
2018-11-03T02:11:44.613Z,11.00
2018-11-03T02:14:19.947Z,9.98
2018-11-03T02:16:55.730Z,9.73
2018-11-03T02:19:31.706Z,10.75
2018-11-03T02:22:07.132Z,9.75
2018-11-03T02:24:42.766Z,12.10
2018-11-03T02:27:18.155Z,13.98
2018-11-03T02:29:53.553Z,12.75
2018-11-03T02:32:28.828Z,13.15
2018-11-03T02:35:04.447Z,12.88
2018-11-03T02:37:40.362Z,12.37
2018-11-03T02:40:15.747Z,12.40
2018-11-03T02:42:51.382Z,12.85
2018-11-03T02:45:26.924Z,12.43
2018-11-03T02:48:02.490Z,12.90
2018-11-03T02:50:38.065Z,14.70
2018-11-03T02:53:13.612Z,12.00
2018-11-03T02:55:49.255Z,11.18
2018-11-03T02:58:24.844Z,13.08
2018-11-03T03:01:00.524Z,12.58
2018-11-03T03:03:35.997Z,14.45
2018-11-03T03:06:11.142Z,11.40
2018-11-03T03:08:46.732Z,13.00
2018-11-03T03:11:22.355Z,12.43
2018-11-03T03:13:57.954Z,13.08
2018-11-03T03:16:33.614Z,13.72
2018-11-03T03:19:08.842Z,11.85
2018-11-03T03:21:44.325Z,12.88
2018-11-03T03:24:19.715Z,12.43
2018-11-03T03:26:55.324Z,13.25
2018-11-03T03:29:30.679Z,13.83
2018-11-03T03:32:06.206Z,13.62
2018-11-03T03:34:41.722Z,14.68
2018-11-03T03:37:17.274Z,14.65
2018-11-03T03:39:52.747Z,13.55
2018-11-03T03:42:28.362Z,14.90
2018-11-03T03:45:03.793Z,14.90
2018-11-03T03:47:39.542Z,15.98
2018-11-03T03:50:15.072Z,13.28
2018-11-03T03:52:50.637Z,13.65
2018-11-03T03:55:25.994Z,15.03
2018-11-03T03:58:01.820Z,15.28
2018-11-03T04:00:37.437Z,15.25
2018-11-03T04:03:12.834Z,14.83
2018-11-03T04:05:48.374Z,16.40
2018-11-03T04:08:23.968Z,14.60
2018-11-03T04:10:59.241Z,15.48
2018-11-03T04:13:34.949Z,16.40
2018-11-03T04:16:10.541Z,15.78
2018-11-03T04:18:46.425Z,14.45
2018-11-03T04:21:27.574Z,16.12
2018-11-03T04:24:03.244Z,15.23
2018-11-03T04:26:38.877Z,16.87
2018-11-03T04:29:14.474Z,16.30
2018-11-03T04:31:49.622Z,17.30
2018-11-03T04:34:25.226Z,15.38
2018-11-03T04:37:00.546Z,15.95
2018-11-03T04:39:35.726Z,15.05
2018-11-03T04:42:11.058Z,15.05
2018-11-03T04:44:46.662Z,14.68
2018-11-03T04:47:22.038Z,13.00
2018-11-03T04:49:57.375Z,15.20
2018-11-03T04:52:36.064Z,15.78
2018-11-03T04:55:11.635Z,15.70
2018-11-03T04:57:47.165Z,15.15
2018-11-03T05:00:22.858Z,14.87
2018-11-03T05:02:58.474Z,15.13
2018-11-03T05:05:33.970Z,16.17
2018-11-03T05:08:09.452Z,17.62
2018-11-03T05:10:44.901Z,16.82
2018-11-03T05:13:20.266Z,16.12
2018-11-03T05:15:55.541Z,16.02
2018-11-03T05:18:30.985Z,15.25
2018-11-03T05:21:06.587Z,16.17
2018-11-03T05:23:42.187Z,16.90
2018-11-03T05:26:17.863Z,15.70
2018-11-03T05:28:53.402Z,16.48
2018-11-03T05:31:29.032Z,17.48
2018-11-03T05:34:04.616Z,17.67
2018-11-03T05:36:39.959Z,17.87
2018-11-03T05:39:15.513Z,16.50
2018-11-03T05:41:50.893Z,16.07
2018-11-03T05:44:26.369Z,17.37
2018-11-03T05:47:02.148Z,14.93
2018-11-03T05:49:37.673Z,16.75
2018-11-03T05:52:13.225Z,16.85
2018-11-03T05:54:48.763Z,18.52
2018-11-03T05:57:24.211Z,16.87
2018-11-03T05:59:59.835Z,15.78
2018-11-03T06:02:35.280Z,17.60
2018-11-03T06:05:10.584Z,17.02
2018-11-03T06:07:46.227Z,17.23
2018-11-03T06:10:21.803Z,16.12
2018-11-03T06:12:57.492Z,17.60
2018-11-03T06:15:33.107Z,17.42
2018-11-03T06:18:08.555Z,17.73
2018-11-03T06:20:43.903Z,18.02
2018-11-03T06:23:19.240Z,17.45
2018-11-03T06:25:54.834Z,17.32
2018-11-03T06:28:30.353Z,18.50
2018-11-03T06:31:05.894Z,17.27
2018-11-03T06:33:41.284Z,16.42
2018-11-03T06:36:17.135Z,18.37
2018-11-03T06:38:52.554Z,17.80
2018-11-03T06:41:28.580Z,19.17
2018-11-03T06:44:03.945Z,17.62
2018-11-03T06:46:39.476Z,20.05
2018-11-03T06:49:19.991Z,19.10
2018-11-03T06:51:55.444Z,17.62
2018-11-03T06:54:31.135Z,19.52
2018-11-03T06:57:06.715Z,18.80
2018-11-03T06:59:42.255Z,18.32
2018-11-03T07:02:17.792Z,18.92
2018-11-03T07:04:53.285Z,18.70
2018-11-03T07:07:28.921Z,19.15
2018-11-03T07:10:04.584Z,19.20
2018-11-03T07:12:40.617Z,21.80
2018-11-03T07:15:15.835Z,19.30
2018-11-03T07:17:51.260Z,22.22
2018-11-03T07:20:26.820Z,21.05
2018-11-03T07:23:02.491Z,19.20
2018-11-03T07:25:38.244Z,20.77
2018-11-03T07:28:13.984Z,19.57
2018-11-03T07:30:50.693Z,19.80
2018-11-03T07:33:26.150Z,20.80
2018-11-03T07:36:01.656Z,20.15
2018-11-03T07:38:37.187Z,20.82
2018-11-03T07:41:12.785Z,21.45
2018-11-03T07:43:48.147Z,20.37
2018-11-03T07:46:24.313Z,23.85
2018-11-03T07:49:00.061Z,20.00
2018-11-03T07:51:35.491Z,19.75
2018-11-03T07:54:10.834Z,20.80
2018-11-03T07:56:46.093Z,20.65
2018-11-03T07:59:21.635Z,21.87
2018-11-03T08:01:58.989Z,21.65
2018-11-03T08:04:36.350Z,22.25
2018-11-03T08:07:12.672Z,21.12
2018-11-03T08:09:48.552Z,19.98
2018-11-03T08:12:24.343Z,20.43
2018-11-03T08:14:59.699Z,23.47
2018-11-03T08:17:35.604Z,22.17
2018-11-03T08:20:11.750Z,21.62
2018-11-03T08:22:47.283Z,21.33
2018-11-03T08:25:22.626Z,20.52
2018-11-03T08:27:58.404Z,22.10
2018-11-03T08:30:34.095Z,21.27
2018-11-03T08:33:09.593Z,21.10
2018-11-03T08:35:45.132Z,22.07
2018-11-03T08:38:20.653Z,21.95
2018-11-03T08:40:55.934Z,23.42
2018-11-03T08:43:31.362Z,23.92
2018-11-03T08:46:07.680Z,22.67
2018-11-03T08:48:43.261Z,22.25
2018-11-03T08:51:18.617Z,23.12
2018-11-03T08:53:54.210Z,21.97
2018-11-03T08:56:29.713Z,22.60
2018-11-03T08:59:05.133Z,22.58
2018-11-03T09:01:40.813Z,21.05
2018-11-03T09:04:16.365Z,21.33
2018-11-03T09:06:51.819Z,21.35
2018-11-03T09:09:27.314Z,18.82
2018-11-03T09:12:02.743Z,20.90
2018-11-03T09:14:38.154Z,22.00
2018-11-03T09:17:13.573Z,19.85
2018-11-03T09:19:49.055Z,21.55
2018-11-03T09:22:24.525Z,20.88
2018-11-03T09:24:59.850Z,19.67
2018-11-03T09:27:35.482Z,20.90
2018-11-03T09:30:13.165Z,20.55
2018-11-03T09:32:48.764Z,19.98
2018-11-03T09:35:24.201Z,22.00
2018-11-03T09:37:59.793Z,23.62
2018-11-03T09:40:35.305Z,22.77
2018-11-03T09:43:10.915Z,22.45
2018-11-03T09:45:46.060Z,21.23
2018-11-03T09:48:21.479Z,20.97
2018-11-03T09:50:57.155Z,20.00
2018-11-03T09:53:32.613Z,19.32
2018-11-03T09:56:08.070Z,19.82
2018-11-03T09:58:43.524Z,18.67
2018-11-03T10:01:18.955Z,18.90
2018-11-03T10:03:54.284Z,17.57
2018-11-03T10:06:29.576Z,18.00
2018-11-03T10:09:05.823Z,18.55
2018-11-03T10:11:41.081Z,18.35
2018-11-03T10:14:16.514Z,18.27
2018-11-03T10:16:52.130Z,18.52
2018-11-03T10:19:27.674Z,18.45
2018-11-03T10:22:03.150Z,19.12
2018-11-03T10:24:38.674Z,18.80
2018-11-03T10:27:14.037Z,19.30
2018-11-03T10:29:49.464Z,19.25
2018-11-03T10:32:24.882Z,18.87
2018-11-03T10:35:00.451Z,18.15
2018-11-03T10:37:36.269Z,16.82
2018-11-03T10:40:13.651Z,18.00
2018-11-03T10:42:49.326Z,17.12
2018-11-03T10:45:24.902Z,15.23
2018-11-03T10:48:00.354Z,14.03
2018-11-03T10:50:36.001Z,13.32
2018-11-03T10:53:11.488Z,13.55
2018-11-03T10:55:46.732Z,13.98
2018-11-03T10:58:22.079Z,15.25
2018-11-03T11:01:02.738Z,14.50
2018-11-03T11:03:43.139Z,13.65
2018-11-03T11:06:23.401Z,12.93
2018-11-03T11:10:07.844Z,11.90
2018-11-03T11:12:45.884Z,9.85
2018-11-03T11:15:21.498Z,9.60
2018-11-03T11:17:57.524Z,10.30
2018-11-03T11:20:32.990Z,9.95
2018-11-03T11:23:08.320Z,9.53
2018-11-03T11:25:43.759Z,9.03
2018-11-03T11:28:19.347Z,8.85
2018-11-03T11:30:54.794Z,8.75
2018-11-03T11:33:30.224Z,8.03
2018-11-03T11:36:05.756Z,7.70
2018-11-03T11:38:41.143Z,7.65
2018-11-03T11:41:16.336Z,7.95
2018-11-03T11:43:51.752Z,8.88
2018-11-03T11:46:27.138Z,7.70
2018-11-03T11:49:02.476Z,6.78
2018-11-03T11:51:37.821Z,7.25
2018-11-03T11:54:13.264Z,7.58
2018-11-03T11:56:48.875Z,7.47
2018-11-03T11:59:24.604Z,6.90
2018-11-03T12:02:00.070Z,6.72
2018-11-03T12:04:35.543Z,6.17
2018-11-03T12:07:10.864Z,7.85
2018-11-03T12:09:46.282Z,6.08
2018-11-03T12:12:21.631Z,6.33
2018-11-03T12:14:57.022Z,5.95
2018-11-03T12:17:32.487Z,5.30
2018-11-03T12:20:08.158Z,5.00
2018-11-03T12:22:43.335Z,5.60
2018-11-03T12:25:19.034Z,6.30
2018-11-03T12:27:54.327Z,5.10
2018-11-03T12:30:29.655Z,5.20
2018-11-03T12:33:05.517Z,5.30
2018-11-03T12:35:41.104Z,4.90
2018-11-03T12:38:16.346Z,4.30
2018-11-03T12:40:51.746Z,4.65
2018-11-03T12:43:26.886Z,4.05
2018-11-03T12:46:02.611Z,4.00
2018-11-03T12:48:38.141Z,3.72
2018-11-03T12:51:13.674Z,3.15
2018-11-03T12:53:48.865Z,3.20
2018-11-03T12:56:24.475Z,2.80
2018-11-03T12:58:59.893Z,2.80
2018-11-03T13:01:35.430Z,2.60
2018-11-03T13:04:10.970Z,1.98
2018-11-03T13:06:46.751Z,2.10
2018-11-03T13:09:22.353Z,2.27
2018-11-03T13:11:57.981Z,1.92
2018-11-03T13:14:33.323Z,3.35
2018-11-03T13:17:08.555Z,2.47
2018-11-03T13:19:44.274Z,3.02
2018-11-03T13:22:19.844Z,3.00
2018-11-03T13:24:55.344Z,3.08
2018-11-03T13:27:30.847Z,3.70
2018-11-03T13:30:07.154Z,2.92
2018-11-03T13:32:42.563Z,3.40
2018-11-03T13:35:18.044Z,2.72
2018-11-03T13:37:53.493Z,2.58
2018-11-03T13:40:29.071Z,2.70
2018-11-03T13:43:05.084Z,2.67
2018-11-03T13:45:40.423Z,3.40
2018-11-03T13:48:16.168Z,2.83
2018-11-03T13:50:51.651Z,2.33
2018-11-03T13:53:27.356Z,2.12
2018-11-03T13:56:03.114Z,2.33
2018-11-03T13:58:38.529Z,2.70
2018-11-03T14:01:14.064Z,2.33
2018-11-03T14:03:49.795Z,2.70
2018-11-03T14:06:25.174Z,3.42
2018-11-03T14:09:00.555Z,3.40
2018-11-03T14:11:35.732Z,4.42
2018-11-03T14:14:11.312Z,5.20
2018-11-03T14:16:47.386Z,5.03
2018-11-03T14:19:22.822Z,4.90
2018-11-03T14:21:58.233Z,4.47
2018-11-03T14:24:33.804Z,6.10
2018-11-03T14:27:09.904Z,6.90
2018-11-03T14:29:45.897Z,6.03
2018-11-03T14:32:21.332Z,5.78
2018-11-03T14:34:56.895Z,5.70
2018-11-03T14:37:32.841Z,4.85
2018-11-03T14:40:10.475Z,6.22
2018-11-03T14:42:46.442Z,5.75
2018-11-03T14:45:21.915Z,5.10
2018-11-03T14:47:57.562Z,3.95
2018-11-03T14:50:33.894Z,3.83
2018-11-03T14:53:09.446Z,7.28
2018-11-03T14:55:45.172Z,6.05
2018-11-03T14:58:21.555Z,7.28
2018-11-03T15:00:57.423Z,5.80
2018-11-03T15:03:34.187Z,5.42
2018-11-03T15:06:09.601Z,7.22
2018-11-03T15:08:44.811Z,8.30
2018-11-03T15:11:20.401Z,6.00
2018-11-03T15:13:56.234Z,6.55
2018-11-03T15:16:32.360Z,5.45
2018-11-03T15:19:08.253Z,5.97
2018-11-03T15:21:44.494Z,5.87
2018-11-03T15:24:20.375Z,8.83
2018-11-03T15:26:55.752Z,6.65
2018-11-03T15:29:31.190Z,7.37
2018-11-03T15:32:06.635Z,6.35
2018-11-03T15:34:41.960Z,5.58
2018-11-03T15:37:17.423Z,5.15
2018-11-03T15:39:53.059Z,4.30
2018-11-03T15:42:29.906Z,5.05
2018-11-03T15:45:06.921Z,4.70
2018-11-03T15:47:43.562Z,4.20
2018-11-03T15:50:19.046Z,4.90
2018-11-03T15:52:54.675Z,4.90
2018-11-03T15:55:30.286Z,7.17
2018-11-03T15:58:05.901Z,9.25
2018-11-03T16:00:42.134Z,10.65
2018-11-03T16:03:17.614Z,8.90
2018-11-03T16:05:53.160Z,6.87
2018-11-03T16:08:28.361Z,5.35
2018-11-03T16:11:04.662Z,4.30
2018-11-03T16:13:40.444Z,4.85
2018-11-03T16:16:16.240Z,4.83
2018-11-03T16:18:52.263Z,5.60
2018-11-03T16:21:28.094Z,5.47
2018-11-03T16:24:03.744Z,5.92
2018-11-03T16:26:39.628Z,5.70
2018-11-03T16:29:15.246Z,5.70
2018-11-03T16:31:51.045Z,5.80
2018-11-03T16:34:26.592Z,6.30
2018-11-03T16:37:02.125Z,4.85
2018-11-03T16:39:37.992Z,5.92
2018-11-03T16:42:13.454Z,5.08
2018-11-03T16:44:49.006Z,5.45
2018-11-03T16:47:24.769Z,5.20
2018-11-03T16:50:00.620Z,7.35
2018-11-03T16:52:36.098Z,6.85
2018-11-03T16:55:12.556Z,6.80
2018-11-03T16:57:48.043Z,6.10
2018-11-03T17:00:23.506Z,6.17
2018-11-03T17:02:58.895Z,6.12
2018-11-03T17:05:34.307Z,5.90
2018-11-03T17:08:09.997Z,5.83
2018-11-03T17:10:45.173Z,6.37
2018-11-03T17:13:20.521Z,8.20
2018-11-03T17:15:55.852Z,6.37
2018-11-03T17:18:31.256Z,7.05
2018-11-03T17:21:06.675Z,8.70
2018-11-03T17:23:42.135Z,7.30
2018-11-03T17:26:17.460Z,7.53
2018-11-03T17:28:52.904Z,6.97
2018-11-03T17:31:28.533Z,7.90
2018-11-03T17:34:04.309Z,8.20
2018-11-03T17:36:39.953Z,8.65
2018-11-03T17:39:15.257Z,7.42
2018-11-03T17:41:51.115Z,8.20
2018-11-03T17:44:26.440Z,8.50
2018-11-03T17:47:01.815Z,9.53
2018-11-03T17:49:37.112Z,8.45
2018-11-03T17:52:12.543Z,9.05
2018-11-03T17:54:47.983Z,8.68
2018-11-03T17:57:23.412Z,8.40
2018-11-03T17:59:58.990Z,8.63
2018-11-03T18:02:34.534Z,9.03
2018-11-03T18:05:10.172Z,8.43
2018-11-03T18:07:45.743Z,9.25
2018-11-03T18:10:21.161Z,9.28
2018-11-03T18:12:56.613Z,9.90
2018-11-03T18:15:31.937Z,9.18
2018-11-03T18:18:07.588Z,9.30
2018-11-03T18:20:42.835Z,8.55
2018-11-03T18:23:18.547Z,10.58
2018-11-03T18:25:53.993Z,10.08
2018-11-03T18:28:29.373Z,10.23
2018-11-03T18:31:05.137Z,10.82
2018-11-03T18:33:41.146Z,10.18
2018-11-03T18:36:16.592Z,10.85
2018-11-03T18:38:52.072Z,10.23
2018-11-03T18:41:27.739Z,12.10
2018-11-03T18:44:03.066Z,10.88
2018-11-03T18:46:38.442Z,12.43
2018-11-03T18:49:13.863Z,12.65
2018-11-03T18:51:49.359Z,12.43
2018-11-03T18:54:24.647Z,13.10
2018-11-03T18:57:00.204Z,14.30
2018-11-03T18:59:35.936Z,12.68
2018-11-03T19:02:12.079Z,13.88
2018-11-03T19:04:47.408Z,14.50
2018-11-03T19:07:22.933Z,15.50
2018-11-03T19:09:58.546Z,14.53
2018-11-03T19:12:34.024Z,14.35
2018-11-03T19:15:10.625Z,13.58
2018-11-03T19:17:46.064Z,14.83
2018-11-03T19:20:21.425Z,13.85
2018-11-03T19:22:57.235Z,14.78
2018-11-03T19:25:32.932Z,13.25
2018-11-03T19:28:08.648Z,14.45
2018-11-03T19:30:44.135Z,17.57
2018-11-03T19:33:19.811Z,16.10
2018-11-03T19:35:55.175Z,14.60
2018-11-03T19:38:30.827Z,15.08
2018-11-03T19:41:06.458Z,17.25
2018-11-03T19:43:41.981Z,15.18
2018-11-03T19:46:17.561Z,15.30
2018-11-03T19:48:53.193Z,17.05
2018-11-03T19:51:28.568Z,18.48
2018-11-03T19:54:04.345Z,15.93
2018-11-03T19:56:39.846Z,16.77
2018-11-03T19:59:15.365Z,17.50
2018-11-03T20:01:50.848Z,16.93
2018-11-03T20:04:26.564Z,17.70
2018-11-03T20:07:02.127Z,16.67
2018-11-03T20:09:37.349Z,18.40
2018-11-03T20:12:12.715Z,18.75
2018-11-03T20:17:38.428Z,17.20
2018-11-03T20:20:14.649Z,19.25
2018-11-03T20:22:50.642Z,18.98
2018-11-03T20:25:26.361Z,19.67
2018-11-03T20:28:01.773Z,19.27
2018-11-03T20:30:37.257Z,20.35
2018-11-03T20:33:12.585Z,18.55
2018-11-03T20:35:48.043Z,18.67
2018-11-03T20:38:23.379Z,18.60
2018-11-03T20:40:59.040Z,19.15
2018-11-03T20:43:34.572Z,17.82
2018-11-03T20:46:10.232Z,19.25
2018-11-03T20:48:45.606Z,17.87
2018-11-03T20:51:21.155Z,15.68
2018-11-03T20:53:56.825Z,17.25
2018-11-03T20:56:32.365Z,17.35
2018-11-03T20:59:07.975Z,17.73
2018-11-03T21:01:43.526Z,17.82
2018-11-03T21:04:19.056Z,18.12
2018-11-03T21:06:54.665Z,18.27
2018-11-03T21:09:30.035Z,18.02
2018-11-03T21:12:05.683Z,18.15
2018-11-03T21:14:41.455Z,18.80
2018-11-03T21:17:16.824Z,18.60
2018-11-03T21:19:52.098Z,16.42
2018-11-03T21:22:27.730Z,18.55
2018-11-03T21:25:03.177Z,16.87
2018-11-03T21:27:38.529Z,14.75
2018-11-03T21:30:14.081Z,18.32
2018-11-03T21:32:49.450Z,16.95
2018-11-03T21:35:24.885Z,17.82
2018-11-03T21:38:00.346Z,15.78
2018-11-03T21:40:35.842Z,16.02
2018-11-03T21:43:11.191Z,16.70
2018-11-03T21:45:46.454Z,16.07
2018-11-03T21:48:21.956Z,14.23
2018-11-03T21:50:57.354Z,15.68
2018-11-03T21:53:32.747Z,16.50
2018-11-03T21:56:08.483Z,15.32
2018-11-03T21:58:44.044Z,15.13
2018-11-03T22:01:19.616Z,15.28
2018-11-03T22:03:55.349Z,16.30
2018-11-03T22:06:30.954Z,13.60
2018-11-03T22:09:09.028Z,13.18
2018-11-03T22:11:44.462Z,15.08
2018-11-03T22:14:19.897Z,14.60
2018-11-03T22:16:56.142Z,13.15
2018-11-03T22:19:31.474Z,13.25
2018-11-03T22:22:06.904Z,15.32
2018-11-03T22:24:42.394Z,13.75
2018-11-03T22:27:17.823Z,13.50
2018-11-03T22:29:53.386Z,14.90
2018-11-03T22:32:29.074Z,13.25
2018-11-03T22:35:04.693Z,13.45
2018-11-03T22:37:40.259Z,12.28
2018-11-03T22:40:15.645Z,12.30
2018-11-03T22:42:51.078Z,12.93
2018-11-03T22:45:26.596Z,13.20
2018-11-03T22:48:02.101Z,13.43
2018-11-03T22:50:37.422Z,11.55
2018-11-03T22:53:12.829Z,13.08
2018-11-03T22:55:48.239Z,14.65
2018-11-03T22:58:23.637Z,13.08
2018-11-03T23:00:59.100Z,12.55
2018-11-03T23:03:34.461Z,12.98
2018-11-03T23:06:09.762Z,13.20
2018-11-03T23:08:45.344Z,14.90
2018-11-03T23:11:20.942Z,11.85
2018-11-03T23:13:56.213Z,12.78
2018-11-03T23:16:31.494Z,12.58
2018-11-03T23:19:06.897Z,12.13
2018-11-03T23:21:42.371Z,14.83
2018-11-03T23:24:17.814Z,12.00
2018-11-03T23:26:53.337Z,12.60
2018-11-03T23:29:28.880Z,11.50
2018-11-03T23:32:04.356Z,11.75
2018-11-03T23:34:39.662Z,11.97
2018-11-03T23:37:15.271Z,12.53
2018-11-03T23:39:50.721Z,12.03
2018-11-03T23:42:26.165Z,12.80
2018-11-03T23:45:01.621Z,12.85
2018-11-03T23:47:37.071Z,13.10
2018-11-03T23:50:13.526Z,13.48
2018-11-03T23:52:49.141Z,13.90
2018-11-03T23:55:24.974Z,13.35
2018-11-03T23:58:00.556Z,13.83
